sensor_id;sensor_type;location;lat;lon;timestamp;P1;durP1;ratioP1;P2;durP2;ratioP2
10162;SDS011;5123;52.556;13.384;2023-09-08T00:00:00;12.43;;;11.10;;
10162;SDS011;5123;52.556;13.384;2023-09-08T00:02:35;16.23;;;10.97;;
10162;SDS011;5123;52.556;13.384;2023-09-08T00:05:10;14.27;;;10.50;;
10162;SDS011;5123;52.556;13.384;2023-09-08T00:07:43;13.47;;;10.97;;
10162;SDS011;5123;52.556;13.384;2023-09-08T00:10:15;13.10;;;11.73;;
10162;SDS011;5123;52.556;13.384;2023-09-08T00:12:48;12.07;;;10.50;;
10162;SDS011;5123;52.556;13.384;2023-09-08T00:15:22;14.97;;;11.33;;
10162;SDS011;5123;52.556;13.384;2023-09-08T00:17:55;13.53;;;10.90;;
10162;SDS011;5123;52.556;13.384;2023-09-08T00:20:28;12.37;;;11.17;;
10162;SDS011;5123;52.556;13.384;2023-09-08T00:23:01;13.10;;;11.80;;
10162;SDS011;5123;52.556;13.384;2023-09-08T00:25:34;12.00;;;10.83;;
10162;SDS011;5123;52.556;13.384;2023-09-08T00:28:07;11.70;;;10.50;;
10162;SDS011;5123;52.556;13.384;2023-09-08T00:30:44;11.57;;;10.37;;
10162;SDS011;5123;52.556;13.384;2023-09-08T00:33:17;12.47;;;10.50;;
10162;SDS011;5123;52.556;13.384;2023-09-08T00:35:50;12.97;;;10.53;;
10162;SDS011;5123;52.556;13.384;2023-09-08T00:38:24;12.33;;;10.80;;
10162;SDS011;5123;52.556;13.384;2023-09-08T00:40:57;12.60;;;11.30;;
10162;SDS011;5123;52.556;13.384;2023-09-08T00:43:32;13.80;;;10.87;;
10162;SDS011;5123;52.556;13.384;2023-09-08T00:46:06;11.80;;;10.60;;
10162;SDS011;5123;52.556;13.384;2023-09-08T00:48:39;11.43;;;10.33;;
10162;SDS011;5123;52.556;13.384;2023-09-08T00:51:12;11.90;;;10.47;;
10162;SDS011;5123;52.556;13.384;2023-09-08T00:53:44;14.63;;;10.47;;
10162;SDS011;5123;52.556;13.384;2023-09-08T00:56:17;11.63;;;10.63;;
10162;SDS011;5123;52.556;13.384;2023-09-08T00:58:53;12.83;;;10.50;;
10162;SDS011;5123;52.556;13.384;2023-09-08T01:01:30;12.33;;;11.03;;
10162;SDS011;5123;52.556;13.384;2023-09-08T01:04:05;12.83;;;11.60;;
10162;SDS011;5123;52.556;13.384;2023-09-08T01:06:38;11.60;;;10.50;;
10162;SDS011;5123;52.556;13.384;2023-09-08T01:09:11;15.30;;;11.83;;
10162;SDS011;5123;52.556;13.384;2023-09-08T01:11:44;12.60;;;11.40;;
10162;SDS011;5123;52.556;13.384;2023-09-08T01:14:18;14.50;;;11.93;;
10162;SDS011;5123;52.556;13.384;2023-09-08T01:16:58;15.03;;;12.60;;
10162;SDS011;5123;52.556;13.384;2023-09-08T01:19:31;13.97;;;12.40;;
10162;SDS011;5123;52.556;13.384;2023-09-08T01:22:18;16.00;;;12.47;;
10162;SDS011;5123;52.556;13.384;2023-09-08T01:27:47;14.13;;;12.63;;
10162;SDS011;5123;52.556;13.384;2023-09-08T01:30:21;14.47;;;12.60;;
10162;SDS011;5123;52.556;13.384;2023-09-08T01:32:57;14.30;;;13.00;;
10162;SDS011;5123;52.556;13.384;2023-09-08T01:35:31;14.50;;;12.47;;
10162;SDS011;5123;52.556;13.384;2023-09-08T01:38:04;13.60;;;12.20;;
10162;SDS011;5123;52.556;13.384;2023-09-08T01:40:40;13.90;;;12.43;;
10162;SDS011;5123;52.556;13.384;2023-09-08T01:43:14;13.63;;;12.30;;
10162;SDS011;5123;52.556;13.384;2023-09-08T01:45:47;14.30;;;12.87;;
10162;SDS011;5123;52.556;13.384;2023-09-08T01:48:19;14.17;;;11.97;;
10162;SDS011;5123;52.556;13.384;2023-09-08T01:50:52;13.20;;;11.47;;
10162;SDS011;5123;52.556;13.384;2023-09-08T01:53:26;15.30;;;12.67;;
10162;SDS011;5123;52.556;13.384;2023-09-08T01:55:59;14.83;;;12.53;;
10162;SDS011;5123;52.556;13.384;2023-09-08T01:58:33;13.07;;;11.77;;
10162;SDS011;5123;52.556;13.384;2023-09-08T02:01:06;13.33;;;11.73;;
10162;SDS011;5123;52.556;13.384;2023-09-08T02:03:39;12.93;;;11.60;;
10162;SDS011;5123;52.556;13.384;2023-09-08T02:06:12;17.80;;;11.50;;
10162;SDS011;5123;52.556;13.384;2023-09-08T02:08:45;13.17;;;11.23;;
10162;SDS011;5123;52.556;13.384;2023-09-08T02:11:18;15.60;;;11.80;;
10162;SDS011;5123;52.556;13.384;2023-09-08T02:13:52;12.70;;;10.83;;
10162;SDS011;5123;52.556;13.384;2023-09-08T02:16:29;12.30;;;11.20;;
10162;SDS011;5123;52.556;13.384;2023-09-08T02:19:02;12.77;;;11.47;;
10162;SDS011;5123;52.556;13.384;2023-09-08T02:21:35;14.13;;;11.57;;
10162;SDS011;5123;52.556;13.384;2023-09-08T02:24:07;12.20;;;10.90;;
10162;SDS011;5123;52.556;13.384;2023-09-08T02:26:41;13.43;;;12.03;;
10162;SDS011;5123;52.556;13.384;2023-09-08T02:29:16;12.90;;;11.50;;
10162;SDS011;5123;52.556;13.384;2023-09-08T02:31:49;15.27;;;11.70;;
10162;SDS011;5123;52.556;13.384;2023-09-08T02:34:22;14.17;;;11.47;;
10162;SDS011;5123;52.556;13.384;2023-09-08T02:36:55;13.40;;;11.80;;
10162;SDS011;5123;52.556;13.384;2023-09-08T02:39:27;14.47;;;11.60;;
10162;SDS011;5123;52.556;13.384;2023-09-08T02:42:00;16.20;;;11.73;;
10162;SDS011;5123;52.556;13.384;2023-09-08T02:44:34;15.43;;;11.20;;
10162;SDS011;5123;52.556;13.384;2023-09-08T02:47:07;12.57;;;11.27;;
10162;SDS011;5123;52.556;13.384;2023-09-08T02:49:44;12.23;;;10.90;;
10162;SDS011;5123;52.556;13.384;2023-09-08T02:52:19;13.07;;;11.77;;
10162;SDS011;5123;52.556;13.384;2023-09-08T02:54:52;12.47;;;11.27;;
10162;SDS011;5123;52.556;13.384;2023-09-08T02:57:24;12.83;;;11.47;;
10162;SDS011;5123;52.556;13.384;2023-09-08T03:00:00;12.67;;;11.37;;
10162;SDS011;5123;52.556;13.384;2023-09-08T03:02:35;12.03;;;10.83;;
10162;SDS011;5123;52.556;13.384;2023-09-08T03:05:08;13.07;;;10.67;;
10162;SDS011;5123;52.556;13.384;2023-09-08T03:07:40;11.60;;;10.50;;
10162;SDS011;5123;52.556;13.384;2023-09-08T03:10:14;11.43;;;10.23;;
10162;SDS011;5123;52.556;13.384;2023-09-08T03:12:47;11.70;;;10.70;;
10162;SDS011;5123;52.556;13.384;2023-09-08T03:15:21;12.77;;;11.03;;
10162;SDS011;5123;52.556;13.384;2023-09-08T03:17:54;12.23;;;10.97;;
10162;SDS011;5123;52.556;13.384;2023-09-08T03:20:29;12.70;;;11.40;;
10162;SDS011;5123;52.556;13.384;2023-09-08T03:23:05;14.90;;;10.97;;
10162;SDS011;5123;52.556;13.384;2023-09-08T03:25:37;13.80;;;10.53;;
10162;SDS011;5123;52.556;13.384;2023-09-08T03:28:11;11.73;;;10.50;;
10162;SDS011;5123;52.556;13.384;2023-09-08T03:30:45;11.53;;;10.37;;
10162;SDS011;5123;52.556;13.384;2023-09-08T03:33:18;15.33;;;10.90;;
10162;SDS011;5123;52.556;13.384;2023-09-08T03:35:53;12.27;;;10.33;;
10162;SDS011;5123;52.556;13.384;2023-09-08T03:38:26;12.30;;;11.03;;
10162;SDS011;5123;52.556;13.384;2023-09-08T03:40:59;13.07;;;11.03;;
10162;SDS011;5123;52.556;13.384;2023-09-08T03:43:33;13.90;;;11.67;;
10162;SDS011;5123;52.556;13.384;2023-09-08T03:46:07;13.80;;;11.77;;
10162;SDS011;5123;52.556;13.384;2023-09-08T03:48:41;11.60;;;10.23;;
10162;SDS011;5123;52.556;13.384;2023-09-08T03:51:16;12.40;;;10.90;;
10162;SDS011;5123;52.556;13.384;2023-09-08T03:53:49;12.93;;;11.33;;
10162;SDS011;5123;52.556;13.384;2023-09-08T03:56:21;11.63;;;10.53;;
10162;SDS011;5123;52.556;13.384;2023-09-08T03:58:54;13.30;;;11.90;;
10162;SDS011;5123;52.556;13.384;2023-09-08T04:01:28;14.60;;;11.40;;
10162;SDS011;5123;52.556;13.384;2023-09-08T04:04:01;13.57;;;11.87;;
10162;SDS011;5123;52.556;13.384;2023-09-08T04:06:34;13.00;;;11.67;;
10162;SDS011;5123;52.556;13.384;2023-09-08T04:09:07;12.60;;;11.27;;
10162;SDS011;5123;52.556;13.384;2023-09-08T04:11:39;14.53;;;11.67;;
10162;SDS011;5123;52.556;13.384;2023-09-08T04:14:12;12.77;;;11.47;;
10162;SDS011;5123;52.556;13.384;2023-09-08T04:16:48;13.30;;;11.37;;
10162;SDS011;5123;52.556;13.384;2023-09-08T04:19:21;14.43;;;11.80;;
10162;SDS011;5123;52.556;13.384;2023-09-08T04:21:57;15.23;;;12.13;;
10162;SDS011;5123;52.556;13.384;2023-09-08T04:24:29;12.40;;;11.10;;
10162;SDS011;5123;52.556;13.384;2023-09-08T04:27:07;12.57;;;11.37;;
10162;SDS011;5123;52.556;13.384;2023-09-08T04:29:42;14.47;;;12.03;;
10162;SDS011;5123;52.556;13.384;2023-09-08T04:32:16;12.33;;;11.00;;
10162;SDS011;5123;52.556;13.384;2023-09-08T04:34:49;15.57;;;11.40;;
10162;SDS011;5123;52.556;13.384;2023-09-08T04:37:24;13.47;;;11.70;;
10162;SDS011;5123;52.556;13.384;2023-09-08T04:39:59;13.33;;;11.50;;
10162;SDS011;5123;52.556;13.384;2023-09-08T04:42:34;16.93;;;12.53;;
10162;SDS011;5123;52.556;13.384;2023-09-08T04:45:07;13.93;;;12.50;;
10162;SDS011;5123;52.556;13.384;2023-09-08T04:47:43;13.60;;;12.20;;
10162;SDS011;5123;52.556;13.384;2023-09-08T04:50:18;16.33;;;12.50;;
10162;SDS011;5123;52.556;13.384;2023-09-08T04:52:53;14.33;;;12.47;;
10162;SDS011;5123;52.556;13.384;2023-09-08T04:55:26;14.80;;;13.20;;
10162;SDS011;5123;52.556;13.384;2023-09-08T04:57:59;14.43;;;12.90;;
10162;SDS011;5123;52.556;13.384;2023-09-08T05:00:31;14.33;;;12.63;;
10162;SDS011;5123;52.556;13.384;2023-09-08T05:03:10;17.17;;;13.03;;
10162;SDS011;5123;52.556;13.384;2023-09-08T05:05:43;14.03;;;12.60;;
10162;SDS011;5123;52.556;13.384;2023-09-08T05:08:17;14.13;;;12.67;;
10162;SDS011;5123;52.556;13.384;2023-09-08T05:10:49;16.83;;;13.23;;
10162;SDS011;5123;52.556;13.384;2023-09-08T05:13:22;14.40;;;12.87;;
10162;SDS011;5123;52.556;13.384;2023-09-08T05:16:02;13.97;;;12.10;;
10162;SDS011;5123;52.556;13.384;2023-09-08T05:18:44;13.47;;;12.27;;
10162;SDS011;5123;52.556;13.384;2023-09-08T05:21:17;17.07;;;13.50;;
10162;SDS011;5123;52.556;13.384;2023-09-08T05:23:50;15.57;;;13.27;;
10162;SDS011;5123;52.556;13.384;2023-09-08T05:26:22;17.03;;;12.40;;
10162;SDS011;5123;52.556;13.384;2023-09-08T05:28:58;15.90;;;13.03;;
10162;SDS011;5123;52.556;13.384;2023-09-08T05:31:30;16.40;;;13.23;;
10162;SDS011;5123;52.556;13.384;2023-09-08T05:34:04;14.57;;;12.80;;
10162;SDS011;5123;52.556;13.384;2023-09-08T05:36:37;13.27;;;11.57;;
10162;SDS011;5123;52.556;13.384;2023-09-08T05:39:14;14.47;;;12.93;;
10162;SDS011;5123;52.556;13.384;2023-09-08T05:41:47;16.67;;;12.53;;
10162;SDS011;5123;52.556;13.384;2023-09-08T05:44:20;14.53;;;12.60;;
10162;SDS011;5123;52.556;13.384;2023-09-08T05:46:56;13.37;;;12.07;;
10162;SDS011;5123;52.556;13.384;2023-09-08T05:49:30;14.20;;;11.70;;
10162;SDS011;5123;52.556;13.384;2023-09-08T05:52:06;12.67;;;11.37;;
10162;SDS011;5123;52.556;13.384;2023-09-08T05:54:41;13.67;;;11.33;;
10162;SDS011;5123;52.556;13.384;2023-09-08T05:57:14;13.27;;;11.43;;
10162;SDS011;5123;52.556;13.384;2023-09-08T05:59:50;16.63;;;12.40;;
10162;SDS011;5123;52.556;13.384;2023-09-08T06:02:23;13.83;;;12.27;;
10162;SDS011;5123;52.556;13.384;2023-09-08T06:04:59;17.33;;;12.00;;
10162;SDS011;5123;52.556;13.384;2023-09-08T06:07:32;13.10;;;11.80;;
10162;SDS011;5123;52.556;13.384;2023-09-08T06:10:09;15.40;;;11.40;;
10162;SDS011;5123;52.556;13.384;2023-09-08T06:12:43;14.67;;;10.70;;
10162;SDS011;5123;52.556;13.384;2023-09-08T06:15:16;12.13;;;10.80;;
10162;SDS011;5123;52.556;13.384;2023-09-08T06:17:48;15.93;;;11.77;;
10162;SDS011;5123;52.556;13.384;2023-09-08T06:20:23;16.60;;;11.57;;
10162;SDS011;5123;52.556;13.384;2023-09-08T06:22:56;14.33;;;10.87;;
10162;SDS011;5123;52.556;13.384;2023-09-08T06:25:36;13.07;;;11.63;;
10162;SDS011;5123;52.556;13.384;2023-09-08T06:28:09;14.23;;;10.57;;
10162;SDS011;5123;52.556;13.384;2023-09-08T06:30:47;12.67;;;11.37;;
10162;SDS011;5123;52.556;13.384;2023-09-08T06:33:20;18.53;;;12.20;;
10162;SDS011;5123;52.556;13.384;2023-09-08T06:35:55;15.53;;;11.17;;
10162;SDS011;5123;52.556;13.384;2023-09-08T06:38:27;15.10;;;12.37;;
10162;SDS011;5123;52.556;13.384;2023-09-08T06:41:07;13.80;;;10.57;;
10162;SDS011;5123;52.556;13.384;2023-09-08T06:43:40;12.70;;;11.20;;
10162;SDS011;5123;52.556;13.384;2023-09-08T06:46:13;15.10;;;11.13;;
10162;SDS011;5123;52.556;13.384;2023-09-08T06:48:46;13.23;;;11.07;;
10162;SDS011;5123;52.556;13.384;2023-09-08T06:51:21;12.50;;;10.83;;
10162;SDS011;5123;52.556;13.384;2023-09-08T06:53:59;12.53;;;10.30;;
10162;SDS011;5123;52.556;13.384;2023-09-08T06:56:32;11.53;;;9.93;;
10162;SDS011;5123;52.556;13.384;2023-09-08T06:59:05;11.40;;;10.23;;
10162;SDS011;5123;52.556;13.384;2023-09-08T07:01:37;12.27;;;10.47;;
10162;SDS011;5123;52.556;13.384;2023-09-08T07:04:10;11.50;;;10.37;;
10162;SDS011;5123;52.556;13.384;2023-09-08T07:06:45;18.27;;;11.90;;
10162;SDS011;5123;52.556;13.384;2023-09-08T07:09:18;14.17;;;10.07;;
10162;SDS011;5123;52.556;13.384;2023-09-08T07:11:50;11.70;;;10.20;;
10162;SDS011;5123;52.556;13.384;2023-09-08T07:14:23;10.77;;;9.67;;
10162;SDS011;5123;52.556;13.384;2023-09-08T07:16:55;14.60;;;10.33;;
10162;SDS011;5123;52.556;13.384;2023-09-08T07:19:31;10.80;;;9.67;;
10162;SDS011;5123;52.556;13.384;2023-09-08T07:22:05;11.17;;;9.33;;
10162;SDS011;5123;52.556;13.384;2023-09-08T07:24:42;11.07;;;9.83;;
10162;SDS011;5123;52.556;13.384;2023-09-08T07:27:15;12.17;;;10.10;;
10162;SDS011;5123;52.556;13.384;2023-09-08T07:29:49;13.17;;;9.73;;
10162;SDS011;5123;52.556;13.384;2023-09-08T07:32:22;11.77;;;10.00;;
10162;SDS011;5123;52.556;13.384;2023-09-08T07:34:57;10.53;;;9.43;;
10162;SDS011;5123;52.556;13.384;2023-09-08T07:37:32;10.13;;;9.13;;
10162;SDS011;5123;52.556;13.384;2023-09-08T07:40:05;11.83;;;9.63;;
10162;SDS011;5123;52.556;13.384;2023-09-08T07:42:38;10.20;;;8.87;;
10162;SDS011;5123;52.556;13.384;2023-09-08T07:45:11;15.63;;;9.80;;
10162;SDS011;5123;52.556;13.384;2023-09-08T07:47:44;11.50;;;9.27;;
10162;SDS011;5123;52.556;13.384;2023-09-08T07:50:17;11.60;;;9.13;;
10162;SDS011;5123;52.556;13.384;2023-09-08T07:52:55;10.70;;;8.70;;
10162;SDS011;5123;52.556;13.384;2023-09-08T07:55:28;10.60;;;9.47;;
10162;SDS011;5123;52.556;13.384;2023-09-08T07:58:01;13.47;;;9.30;;
10162;SDS011;5123;52.556;13.384;2023-09-08T08:00:35;15.10;;;10.37;;
10162;SDS011;5123;52.556;13.384;2023-09-08T08:03:07;12.23;;;9.00;;
10162;SDS011;5123;52.556;13.384;2023-09-08T08:05:40;15.60;;;9.97;;
10162;SDS011;5123;52.556;13.384;2023-09-08T08:08:14;10.60;;;9.23;;
10162;SDS011;5123;52.556;13.384;2023-09-08T08:10:48;11.93;;;9.63;;
10162;SDS011;5123;52.556;13.384;2023-09-08T08:13:21;10.87;;;9.07;;
10162;SDS011;5123;52.556;13.384;2023-09-08T08:15:54;17.07;;;9.63;;
10162;SDS011;5123;52.556;13.384;2023-09-08T08:18:26;20.63;;;9.43;;
10162;SDS011;5123;52.556;13.384;2023-09-08T08:20:59;9.70;;;8.73;;
10162;SDS011;5123;52.556;13.384;2023-09-08T08:23:36;13.70;;;8.90;;
10162;SDS011;5123;52.556;13.384;2023-09-08T08:26:10;11.10;;;8.20;;
10162;SDS011;5123;52.556;13.384;2023-09-08T08:28:45;9.47;;;8.30;;
10162;SDS011;5123;52.556;13.384;2023-09-08T08:31:21;14.53;;;9.17;;
10162;SDS011;5123;52.556;13.384;2023-09-08T08:33:55;9.83;;;8.83;;
10162;SDS011;5123;52.556;13.384;2023-09-08T08:36:28;9.70;;;8.80;;
10162;SDS011;5123;52.556;13.384;2023-09-08T08:39:03;11.27;;;8.40;;
10162;SDS011;5123;52.556;13.384;2023-09-08T08:41:37;12.97;;;10.00;;
10162;SDS011;5123;52.556;13.384;2023-09-08T08:44:11;11.60;;;8.90;;
10162;SDS011;5123;52.556;13.384;2023-09-08T08:46:44;13.33;;;8.90;;
10162;SDS011;5123;52.556;13.384;2023-09-08T08:49:18;11.17;;;9.43;;
10162;SDS011;5123;52.556;13.384;2023-09-08T08:51:59;12.10;;;8.83;;
10162;SDS011;5123;52.556;13.384;2023-09-08T08:54:37;12.53;;;8.03;;
10162;SDS011;5123;52.556;13.384;2023-09-08T08:57:10;12.93;;;9.00;;
10162;SDS011;5123;52.556;13.384;2023-09-08T08:59:46;9.33;;;8.30;;
10162;SDS011;5123;52.556;13.384;2023-09-08T09:02:20;14.43;;;8.47;;
10162;SDS011;5123;52.556;13.384;2023-09-08T09:04:53;11.73;;;8.37;;
10162;SDS011;5123;52.556;13.384;2023-09-08T09:07:27;9.20;;;7.80;;
10162;SDS011;5123;52.556;13.384;2023-09-08T09:10:01;10.47;;;8.23;;
10162;SDS011;5123;52.556;13.384;2023-09-08T09:12:35;10.70;;;7.93;;
10162;SDS011;5123;52.556;13.384;2023-09-08T09:15:09;12.73;;;8.30;;
10162;SDS011;5123;52.556;13.384;2023-09-08T09:17:42;11.60;;;8.33;;
10162;SDS011;5123;52.556;13.384;2023-09-08T09:20:16;10.90;;;7.63;;
10162;SDS011;5123;52.556;13.384;2023-09-08T09:22:52;9.13;;;8.23;;
10162;SDS011;5123;52.556;13.384;2023-09-08T09:25:29;10.80;;;7.77;;
10162;SDS011;5123;52.556;13.384;2023-09-08T09:28:03;8.30;;;7.20;;
10162;SDS011;5123;52.556;13.384;2023-09-08T09:30:46;8.83;;;7.93;;
10162;SDS011;5123;52.556;13.384;2023-09-08T09:33:19;7.83;;;7.03;;
10162;SDS011;5123;52.556;13.384;2023-09-08T09:35:53;13.30;;;8.47;;
10162;SDS011;5123;52.556;13.384;2023-09-08T09:38:28;12.53;;;7.63;;
10162;SDS011;5123;52.556;13.384;2023-09-08T09:41:04;10.53;;;7.97;;
10162;SDS011;5123;52.556;13.384;2023-09-08T09:43:36;8.20;;;7.40;;
10162;SDS011;5123;52.556;13.384;2023-09-08T09:46:09;11.23;;;7.03;;
10162;SDS011;5123;52.556;13.384;2023-09-08T09:48:42;8.60;;;7.33;;
10162;SDS011;5123;52.556;13.384;2023-09-08T09:51:15;11.03;;;8.47;;
10162;SDS011;5123;52.556;13.384;2023-09-08T09:53:50;10.07;;;8.53;;
10162;SDS011;5123;52.556;13.384;2023-09-08T09:56:27;13.57;;;7.97;;
10162;SDS011;5123;52.556;13.384;2023-09-08T09:59:00;12.77;;;7.10;;
10162;SDS011;5123;52.556;13.384;2023-09-08T10:01:38;13.67;;;11.13;;
10162;SDS011;5123;52.556;13.384;2023-09-08T10:04:11;10.00;;;8.70;;
10162;SDS011;5123;52.556;13.384;2023-09-08T10:06:45;12.00;;;8.77;;
10162;SDS011;5123;52.556;13.384;2023-09-08T10:09:19;8.07;;;7.28;;
10162;SDS011;5123;52.556;13.384;2023-09-08T10:11:53;9.37;;;8.37;;
10162;SDS011;5123;52.556;13.384;2023-09-08T10:14:27;8.60;;;7.20;;
10162;SDS011;5123;52.556;13.384;2023-09-08T10:17:00;12.38;;;7.95;;
10162;SDS011;5123;52.556;13.384;2023-09-08T10:19:35;10.02;;;7.65;;
10162;SDS011;5123;52.556;13.384;2023-09-08T10:22:19;9.05;;;7.60;;
10162;SDS011;5123;52.556;13.384;2023-09-08T10:24:54;8.80;;;6.85;;
10162;SDS011;5123;52.556;13.384;2023-09-08T10:27:29;7.43;;;6.53;;
10162;SDS011;5123;52.556;13.384;2023-09-08T10:30:04;9.65;;;8.15;;
10162;SDS011;5123;52.556;13.384;2023-09-08T10:32:38;7.65;;;6.82;;
10162;SDS011;5123;52.556;13.384;2023-09-08T10:35:12;9.07;;;7.47;;
10162;SDS011;5123;52.556;13.384;2023-09-08T10:37:45;8.40;;;7.53;;
10162;SDS011;5123;52.556;13.384;2023-09-08T10:40:21;10.07;;;9.07;;
10162;SDS011;5123;52.556;13.384;2023-09-08T10:45:46;9.13;;;8.10;;
10162;SDS011;5123;52.556;13.384;2023-09-08T10:48:19;9.80;;;8.30;;
10162;SDS011;5123;52.556;13.384;2023-09-08T10:50:52;6.80;;;6.18;;
10162;SDS011;5123;52.556;13.384;2023-09-08T10:53:25;9.23;;;7.82;;
10162;SDS011;5123;52.556;13.384;2023-09-08T10:55:58;9.60;;;7.20;;
10162;SDS011;5123;52.556;13.384;2023-09-08T10:58:37;10.20;;;8.80;;
10162;SDS011;5123;52.556;13.384;2023-09-08T11:01:16;8.73;;;7.82;;
10162;SDS011;5123;52.556;13.384;2023-09-08T11:03:49;7.90;;;6.65;;
10162;SDS011;5123;52.556;13.384;2023-09-08T11:06:23;7.57;;;6.53;;
10162;SDS011;5123;52.556;13.384;2023-09-08T11:09:05;7.93;;;6.55;;
10162;SDS011;5123;52.556;13.384;2023-09-08T11:11:42;7.50;;;6.78;;
10162;SDS011;5123;52.556;13.384;2023-09-08T11:14:15;7.03;;;6.43;;
10162;SDS011;5123;52.556;13.384;2023-09-08T11:16:49;8.25;;;7.45;;
10162;SDS011;5123;52.556;13.384;2023-09-08T11:19:23;11.68;;;10.55;;
10162;SDS011;5123;52.556;13.384;2023-09-08T11:21:56;7.75;;;7.10;;
10162;SDS011;5123;52.556;13.384;2023-09-08T11:24:29;8.18;;;6.60;;
10162;SDS011;5123;52.556;13.384;2023-09-08T11:27:08;8.02;;;6.57;;
10162;SDS011;5123;52.556;13.384;2023-09-08T11:29:47;9.73;;;8.52;;
10162;SDS011;5123;52.556;13.384;2023-09-08T11:32:24;17.45;;;13.25;;
10162;SDS011;5123;52.556;13.384;2023-09-08T11:35:00;24.48;;;21.90;;
10162;SDS011;5123;52.556;13.384;2023-09-08T11:37:35;26.85;;;24.20;;
10162;SDS011;5123;52.556;13.384;2023-09-08T11:40:09;17.80;;;16.10;;
10162;SDS011;5123;52.556;13.384;2023-09-08T11:42:46;7.85;;;6.97;;
10162;SDS011;5123;52.556;13.384;2023-09-08T11:45:19;8.52;;;6.75;;
10162;SDS011;5123;52.556;13.384;2023-09-08T11:47:54;11.20;;;7.82;;
10162;SDS011;5123;52.556;13.384;2023-09-08T11:50:27;7.60;;;6.15;;
10162;SDS011;5123;52.556;13.384;2023-09-08T11:53:00;7.97;;;7.28;;
10162;SDS011;5123;52.556;13.384;2023-09-08T11:55:34;17.38;;;11.85;;
10162;SDS011;5123;52.556;13.384;2023-09-08T11:58:08;9.60;;;8.60;;
10162;SDS011;5123;52.556;13.384;2023-09-08T12:00:41;7.20;;;6.50;;
10162;SDS011;5123;52.556;13.384;2023-09-08T12:03:15;13.93;;;12.45;;
10162;SDS011;5123;52.556;13.384;2023-09-08T12:05:50;10.43;;;9.40;;
10162;SDS011;5123;52.556;13.384;2023-09-08T12:08:24;7.72;;;6.35;;
10162;SDS011;5123;52.556;13.384;2023-09-08T12:10:57;7.25;;;6.57;;
10162;SDS011;5123;52.556;13.384;2023-09-08T12:13:30;7.80;;;7.10;;
10162;SDS011;5123;52.556;13.384;2023-09-08T12:16:16;8.30;;;6.35;;
10162;SDS011;5123;52.556;13.384;2023-09-08T12:18:50;6.03;;;5.53;;
10162;SDS011;5123;52.556;13.384;2023-09-08T12:21:23;11.32;;;5.85;;
10162;SDS011;5123;52.556;13.384;2023-09-08T12:23:56;7.63;;;5.45;;
10162;SDS011;5123;52.556;13.384;2023-09-08T12:26:29;13.77;;;9.40;;
10162;SDS011;5123;52.556;13.384;2023-09-08T12:29:03;8.45;;;7.45;;
10162;SDS011;5123;52.556;13.384;2023-09-08T12:31:37;9.25;;;6.10;;
10162;SDS011;5123;52.556;13.384;2023-09-08T12:34:12;7.68;;;7.03;;
10162;SDS011;5123;52.556;13.384;2023-09-08T12:36:45;12.75;;;11.38;;
10162;SDS011;5123;52.556;13.384;2023-09-08T12:39:17;8.13;;;7.38;;
10162;SDS011;5123;52.556;13.384;2023-09-08T12:41:50;7.70;;;6.90;;
10162;SDS011;5123;52.556;13.384;2023-09-08T12:44:26;8.40;;;7.60;;
10162;SDS011;5123;52.556;13.384;2023-09-08T12:46:59;7.45;;;6.60;;
10162;SDS011;5123;52.556;13.384;2023-09-08T12:49:33;9.15;;;7.72;;
10162;SDS011;5123;52.556;13.384;2023-09-08T12:52:06;7.82;;;6.30;;
10162;SDS011;5123;52.556;13.384;2023-09-08T12:54:39;27.98;;;14.13;;
10162;SDS011;5123;52.556;13.384;2023-09-08T12:57:12;8.50;;;7.28;;
10162;SDS011;5123;52.556;13.384;2023-09-08T12:59:44;45.75;;;20.42;;
10162;SDS011;5123;52.556;13.384;2023-09-08T13:02:17;6.57;;;5.88;;
10162;SDS011;5123;52.556;13.384;2023-09-08T13:04:51;7.28;;;6.25;;
10162;SDS011;5123;52.556;13.384;2023-09-08T13:07:26;12.35;;;6.97;;
10162;SDS011;5123;52.556;13.384;2023-09-08T13:10:01;10.00;;;7.78;;
10162;SDS011;5123;52.556;13.384;2023-09-08T13:12:36;7.30;;;6.35;;
10162;SDS011;5123;52.556;13.384;2023-09-08T13:15:09;14.35;;;11.77;;
10162;SDS011;5123;52.556;13.384;2023-09-08T13:17:44;9.40;;;6.18;;
10162;SDS011;5123;52.556;13.384;2023-09-08T13:20:19;10.68;;;9.30;;
10162;SDS011;5123;52.556;13.384;2023-09-08T13:22:52;13.27;;;8.82;;
10162;SDS011;5123;52.556;13.384;2023-09-08T13:25:24;6.85;;;6.28;;
10162;SDS011;5123;52.556;13.384;2023-09-08T13:27:57;33.53;;;15.05;;
10162;SDS011;5123;52.556;13.384;2023-09-08T13:30:30;10.50;;;6.75;;
10162;SDS011;5123;52.556;13.384;2023-09-08T13:33:03;19.17;;;11.88;;
10162;SDS011;5123;52.556;13.384;2023-09-08T13:35:37;11.25;;;8.30;;
10162;SDS011;5123;52.556;13.384;2023-09-08T13:38:18;9.00;;;7.63;;
10162;SDS011;5123;52.556;13.384;2023-09-08T13:40:51;12.00;;;8.13;;
10162;SDS011;5123;52.556;13.384;2023-09-08T13:43:24;10.20;;;7.53;;
10162;SDS011;5123;52.556;13.384;2023-09-08T13:45:57;13.80;;;10.90;;
10162;SDS011;5123;52.556;13.384;2023-09-08T13:48:29;12.10;;;9.95;;
10162;SDS011;5123;52.556;13.384;2023-09-08T13:51:05;10.20;;;7.50;;
10162;SDS011;5123;52.556;13.384;2023-09-08T13:53:40;7.72;;;6.82;;
10162;SDS011;5123;52.556;13.384;2023-09-08T13:56:18;10.85;;;9.80;;
10162;SDS011;5123;52.556;13.384;2023-09-08T13:58:56;9.20;;;8.38;;
10162;SDS011;5123;52.556;13.384;2023-09-08T14:01:32;7.70;;;5.80;;
10162;SDS011;5123;52.556;13.384;2023-09-08T14:04:11;9.68;;;7.45;;
10162;SDS011;5123;52.556;13.384;2023-09-08T14:06:50;11.15;;;10.05;;
10162;SDS011;5123;52.556;13.384;2023-09-08T14:09:29;7.18;;;5.93;;
10162;SDS011;5123;52.556;13.384;2023-09-08T14:12:23;6.15;;;5.53;;
10162;SDS011;5123;52.556;13.384;2023-09-08T14:15:06;8.13;;;5.90;;
10162;SDS011;5123;52.556;13.384;2023-09-08T14:17:39;8.25;;;5.65;;
10162;SDS011;5123;52.556;13.384;2023-09-08T14:20:11;7.57;;;6.35;;
10162;SDS011;5123;52.556;13.384;2023-09-08T14:22:48;7.53;;;5.90;;
10162;SDS011;5123;52.556;13.384;2023-09-08T14:25:22;6.50;;;5.90;;
10162;SDS011;5123;52.556;13.384;2023-09-08T14:27:55;6.82;;;5.85;;
10162;SDS011;5123;52.556;13.384;2023-09-08T14:30:31;6.63;;;5.85;;
10162;SDS011;5123;52.556;13.384;2023-09-08T14:33:04;10.52;;;9.23;;
10162;SDS011;5123;52.556;13.384;2023-09-08T14:35:40;7.55;;;6.47;;
10162;SDS011;5123;52.556;13.384;2023-09-08T14:38:15;9.45;;;7.82;;
10162;SDS011;5123;52.556;13.384;2023-09-08T14:40:54;7.90;;;6.53;;
10162;SDS011;5123;52.556;13.384;2023-09-08T14:43:27;7.45;;;6.30;;
10162;SDS011;5123;52.556;13.384;2023-09-08T14:46:00;6.93;;;6.25;;
10162;SDS011;5123;52.556;13.384;2023-09-08T14:48:34;7.03;;;6.25;;
10162;SDS011;5123;52.556;13.384;2023-09-08T14:51:08;6.25;;;5.65;;
10162;SDS011;5123;52.556;13.384;2023-09-08T14:53:42;6.15;;;5.57;;
10162;SDS011;5123;52.556;13.384;2023-09-08T14:56:14;6.55;;;5.95;;
10162;SDS011;5123;52.556;13.384;2023-09-08T14:58:47;6.53;;;5.93;;
10162;SDS011;5123;52.556;13.384;2023-09-08T15:01:20;6.22;;;5.63;;
10162;SDS011;5123;52.556;13.384;2023-09-08T15:03:53;8.55;;;6.32;;
10162;SDS011;5123;52.556;13.384;2023-09-08T15:06:27;6.28;;;5.68;;
10162;SDS011;5123;52.556;13.384;2023-09-08T15:09:01;6.90;;;6.30;;
10162;SDS011;5123;52.556;13.384;2023-09-08T15:11:34;6.95;;;5.90;;
10162;SDS011;5123;52.556;13.384;2023-09-08T15:14:09;8.15;;;6.60;;
10162;SDS011;5123;52.556;13.384;2023-09-08T15:16:42;7.03;;;6.32;;